sensor_id;sensor_type;location;lat;lon;timestamp;temperature;humidity
67820;DHT22;54618;52.018;5.576;2023-02-11T00:01:08;16.90;46.70
67820;DHT22;54618;52.018;5.576;2023-02-11T00:03:34;16.90;46.80
67820;DHT22;54618;52.018;5.576;2023-02-11T00:06:02;16.80;47.60
67820;DHT22;54618;52.018;5.576;2023-02-11T00:08:28;16.90;46.80
67820;DHT22;54618;52.018;5.576;2023-02-11T00:10:55;16.80;46.70
67820;DHT22;54618;52.018;5.576;2023-02-11T00:13:22;16.80;46.80
67820;DHT22;54618;52.018;5.576;2023-02-11T00:15:48;16.80;46.80
67820;DHT22;54618;52.018;5.576;2023-02-11T00:18:14;16.80;46.80
67820;DHT22;54618;52.018;5.576;2023-02-11T00:20:40;16.80;46.90
67820;DHT22;54618;52.018;5.576;2023-02-11T00:23:06;16.80;46.90
67820;DHT22;54618;52.018;5.576;2023-02-11T00:25:32;16.70;46.90
67820;DHT22;54618;52.018;5.576;2023-02-11T00:27:57;16.70;46.90
67820;DHT22;54618;52.018;5.576;2023-02-11T00:30:23;16.70;46.90
67820;DHT22;54618;52.018;5.576;2023-02-11T00:32:48;16.70;46.90
67820;DHT22;54618;52.018;5.576;2023-02-11T00:35:14;16.80;47.00
67820;DHT22;54618;52.018;5.576;2023-02-11T00:37:40;16.80;46.90
67820;DHT22;54618;52.018;5.576;2023-02-11T00:40:06;16.80;46.90
67820;DHT22;54618;52.018;5.576;2023-02-11T00:42:32;16.80;46.90
67820;DHT22;54618;52.018;5.576;2023-02-11T00:45:00;16.80;47.00
67820;DHT22;54618;52.018;5.576;2023-02-11T00:47:25;16.80;46.90
67820;DHT22;54618;52.018;5.576;2023-02-11T00:49:51;16.80;47.10
67820;DHT22;54618;52.018;5.576;2023-02-11T00:52:17;16.80;47.10
67820;DHT22;54618;52.018;5.576;2023-02-11T00:54:43;16.70;47.10
67820;DHT22;54618;52.018;5.576;2023-02-11T00:57:08;16.70;47.10
67820;DHT22;54618;52.018;5.576;2023-02-11T00:59:34;16.70;47.20
67820;DHT22;54618;52.018;5.576;2023-02-11T01:01:59;16.70;47.20
67820;DHT22;54618;52.018;5.576;2023-02-11T01:04:25;16.70;47.30
67820;DHT22;54618;52.018;5.576;2023-02-11T01:06:50;16.70;47.40
67820;DHT22;54618;52.018;5.576;2023-02-11T01:09:16;16.60;47.40
67820;DHT22;54618;52.018;5.576;2023-02-11T01:11:42;16.60;47.40
67820;DHT22;54618;52.018;5.576;2023-02-11T01:14:08;16.60;47.40
67820;DHT22;54618;52.018;5.576;2023-02-11T01:16:34;16.60;47.40
67820;DHT22;54618;52.018;5.576;2023-02-11T01:18:59;16.60;47.50
67820;DHT22;54618;52.018;5.576;2023-02-11T01:21:25;16.60;47.50
67820;DHT22;54618;52.018;5.576;2023-02-11T01:23:51;16.50;47.50
67820;DHT22;54618;52.018;5.576;2023-02-11T01:26:17;16.50;47.50
67820;DHT22;54618;52.018;5.576;2023-02-11T01:28:43;16.50;47.50
67820;DHT22;54618;52.018;5.576;2023-02-11T01:31:09;16.50;47.50
67820;DHT22;54618;52.018;5.576;2023-02-11T01:33:34;16.50;47.50
67820;DHT22;54618;52.018;5.576;2023-02-11T01:36:01;16.50;47.50
67820;DHT22;54618;52.018;5.576;2023-02-11T01:38:27;16.50;47.60
67820;DHT22;54618;52.018;5.576;2023-02-11T01:41:02;16.50;47.60
67820;DHT22;54618;52.018;5.576;2023-02-11T01:43:32;16.50;47.60
67820;DHT22;54618;52.018;5.576;2023-02-11T01:46:44;16.40;47.60
67820;DHT22;54618;52.018;5.576;2023-02-11T01:48:48;16.40;47.60
67820;DHT22;54618;52.018;5.576;2023-02-11T01:51:20;16.40;47.60
67820;DHT22;54618;52.018;5.576;2023-02-11T01:53:47;16.40;47.60
67820;DHT22;54618;52.018;5.576;2023-02-11T01:56:35;16.40;47.60
67820;DHT22;54618;52.018;5.576;2023-02-11T01:59:26;16.40;47.60
67820;DHT22;54618;52.018;5.576;2023-02-11T02:01:57;16.40;47.70
67820;DHT22;54618;52.018;5.576;2023-02-11T02:04:27;16.40;47.70
67820;DHT22;54618;52.018;5.576;2023-02-11T02:07:08;16.30;47.60
67820;DHT22;54618;52.018;5.576;2023-02-11T02:09:42;16.30;47.60
67820;DHT22;54618;52.018;5.576;2023-02-11T02:12:08;16.30;47.60
67820;DHT22;54618;52.018;5.576;2023-02-11T02:14:38;16.30;47.60
67820;DHT22;54618;52.018;5.576;2023-02-11T02:17:04;16.30;47.70
67820;DHT22;54618;52.018;5.576;2023-02-11T02:19:41;16.30;47.70
67820;DHT22;54618;52.018;5.576;2023-02-11T02:22:41;16.30;47.70
67820;DHT22;54618;52.018;5.576;2023-02-11T02:25:34;16.30;48.00
67820;DHT22;54618;52.018;5.576;2023-02-11T02:39:05;16.20;47.70
67820;DHT22;54618;52.018;5.576;2023-02-11T02:41:33;16.20;47.90
67820;DHT22;54618;52.018;5.576;2023-02-11T02:44:00;16.20;47.70
67820;DHT22;54618;52.018;5.576;2023-02-11T02:46:30;16.20;47.70
67820;DHT22;54618;52.018;5.576;2023-02-11T02:48:57;16.20;47.70
67820;DHT22;54618;52.018;5.576;2023-02-11T02:51:33;16.20;47.70
67820;DHT22;54618;52.018;5.576;2023-02-11T02:57:19;16.10;47.70
67820;DHT22;54618;52.018;5.576;2023-02-11T03:00:05;16.10;47.70
67820;DHT22;54618;52.018;5.576;2023-02-11T03:05:57;16.10;47.80
67820;DHT22;54618;52.018;5.576;2023-02-11T03:08:45;16.20;47.90
67820;DHT22;54618;52.018;5.576;2023-02-11T03:11:14;16.50;47.90
67820;DHT22;54618;52.018;5.576;2023-02-11T03:13:42;17.00;47.00
67820;DHT22;54618;52.018;5.576;2023-02-11T03:16:12;17.40;46.60
67820;DHT22;54618;52.018;5.576;2023-02-11T03:18:41;17.70;45.90
67820;DHT22;54618;52.018;5.576;2023-02-11T03:21:09;17.80;45.60
67820;DHT22;54618;52.018;5.576;2023-02-11T03:23:43;17.90;45.40
67820;DHT22;54618;52.018;5.576;2023-02-11T03:26:27;17.90;45.40
67820;DHT22;54618;52.018;5.576;2023-02-11T03:29:02;17.90;45.30
67820;DHT22;54618;52.018;5.576;2023-02-11T03:31:51;18.00;45.40
67820;DHT22;54618;52.018;5.576;2023-02-11T03:37:00;18.00;45.30
67820;DHT22;54618;52.018;5.576;2023-02-11T03:39:34;18.10;45.20
67820;DHT22;54618;52.018;5.576;2023-02-11T03:42:02;18.10;45.10
67820;DHT22;54618;52.018;5.576;2023-02-11T03:44:33;18.10;45.10
67820;DHT22;54618;52.018;5.576;2023-02-11T03:47:03;18.10;45.10
67820;DHT22;54618;52.018;5.576;2023-02-11T03:49:31;18.20;45.10
67820;DHT22;54618;52.018;5.576;2023-02-11T03:51:59;18.20;45.10
67820;DHT22;54618;52.018;5.576;2023-02-11T03:54:29;18.20;45.10
67820;DHT22;54618;52.018;5.576;2023-02-11T03:56:57;18.10;45.10
67820;DHT22;54618;52.018;5.576;2023-02-11T03:59:24;18.10;45.10
67820;DHT22;54618;52.018;5.576;2023-02-11T04:01:49;18.10;45.20
67820;DHT22;54618;52.018;5.576;2023-02-11T04:04:15;18.10;45.20
67820;DHT22;54618;52.018;5.576;2023-02-11T04:06:41;18.00;45.20
67820;DHT22;54618;52.018;5.576;2023-02-11T04:09:07;18.00;45.30
67820;DHT22;54618;52.018;5.576;2023-02-11T04:11:33;18.00;45.30
67820;DHT22;54618;52.018;5.576;2023-02-11T04:13:59;18.00;45.30
67820;DHT22;54618;52.018;5.576;2023-02-11T04:16:24;17.90;45.30
67820;DHT22;54618;52.018;5.576;2023-02-11T04:18:50;18.00;45.30
67820;DHT22;54618;52.018;5.576;2023-02-11T04:21:15;18.00;45.30
67820;DHT22;54618;52.018;5.576;2023-02-11T04:23:41;18.00;45.40
67820;DHT22;54618;52.018;5.576;2023-02-11T04:26:06;18.00;45.30
67820;DHT22;54618;52.018;5.576;2023-02-11T04:28:32;18.00;45.30
67820;DHT22;54618;52.018;5.576;2023-02-11T04:30:57;18.00;45.30
67820;DHT22;54618;52.018;5.576;2023-02-11T04:33:23;18.00;45.30
67820;DHT22;54618;52.018;5.576;2023-02-11T04:35:49;18.00;45.30
67820;DHT22;54618;52.018;5.576;2023-02-11T04:38:14;17.90;45.20
67820;DHT22;54618;52.018;5.576;2023-02-11T04:40:40;17.90;45.30
67820;DHT22;54618;52.018;5.576;2023-02-11T04:43:05;17.90;45.20
67820;DHT22;54618;52.018;5.576;2023-02-11T04:45:32;17.90;45.30
67820;DHT22;54618;52.018;5.576;2023-02-11T04:47:57;17.90;45.20
67820;DHT22;54618;52.018;5.576;2023-02-11T04:50:23;17.90;45.30
67820;DHT22;54618;52.018;5.576;2023-02-11T04:52:48;17.90;45.20
67820;DHT22;54618;52.018;5.576;2023-02-11T04:55:14;17.90;45.20
67820;DHT22;54618;52.018;5.576;2023-02-11T04:57:40;17.90;45.20
67820;DHT22;54618;52.018;5.576;2023-02-11T05:00:06;17.90;45.20
67820;DHT22;54618;52.018;5.576;2023-02-11T05:02:32;17.90;45.20
67820;DHT22;54618;52.018;5.576;2023-02-11T05:04:58;17.90;45.20
67820;DHT22;54618;52.018;5.576;2023-02-11T05:07:23;17.90;45.20
67820;DHT22;54618;52.018;5.576;2023-02-11T05:09:49;17.90;45.20
67820;DHT22;54618;52.018;5.576;2023-02-11T05:12:14;17.90;45.20
67820;DHT22;54618;52.018;5.576;2023-02-11T05:14:40;17.90;45.20
67820;DHT22;54618;52.018;5.576;2023-02-11T05:17:05;17.90;45.20
67820;DHT22;54618;52.018;5.576;2023-02-11T05:19:31;17.90;45.20
67820;DHT22;54618;52.018;5.576;2023-02-11T05:21:57;17.90;45.10
67820;DHT22;54618;52.018;5.576;2023-02-11T05:24:22;17.90;45.20
67820;DHT22;54618;52.018;5.576;2023-02-11T05:26:48;17.90;45.20
67820;DHT22;54618;52.018;5.576;2023-02-11T05:29:14;18.00;45.20
67820;DHT22;54618;52.018;5.576;2023-02-11T05:31:39;17.90;45.10
67820;DHT22;54618;52.018;5.576;2023-02-11T05:34:05;18.00;45.20
67820;DHT22;54618;52.018;5.576;2023-02-11T05:36:30;17.90;45.10
67820;DHT22;54618;52.018;5.576;2023-02-11T05:38:56;17.90;45.10
67820;DHT22;54618;52.018;5.576;2023-02-11T05:41:22;17.90;45.10
67820;DHT22;54618;52.018;5.576;2023-02-11T05:43:48;17.90;45.10
67820;DHT22;54618;52.018;5.576;2023-02-11T05:46:18;18.00;45.10
67820;DHT22;54618;52.018;5.576;2023-02-11T05:48:44;18.00;45.10
67820;DHT22;54618;52.018;5.576;2023-02-11T05:51:09;18.00;45.10
67820;DHT22;54618;52.018;5.576;2023-02-11T05:53:35;17.90;45.10
67820;DHT22;54618;52.018;5.576;2023-02-11T05:56:01;17.90;45.10
67820;DHT22;54618;52.018;5.576;2023-02-11T05:58:26;17.90;45.10
67820;DHT22;54618;52.018;5.576;2023-02-11T06:00:52;17.90;45.10
67820;DHT22;54618;52.018;5.576;2023-02-11T06:03:18;17.90;45.10
67820;DHT22;54618;52.018;5.576;2023-02-11T06:05:44;17.90;45.10
67820;DHT22;54618;52.018;5.576;2023-02-11T06:08:10;17.90;45.10
67820;DHT22;54618;52.018;5.576;2023-02-11T06:10:36;17.90;45.10
67820;DHT22;54618;52.018;5.576;2023-02-11T06:13:02;18.00;45.10
67820;DHT22;54618;52.018;5.576;2023-02-11T06:15:28;18.00;45.10
67820;DHT22;54618;52.018;5.576;2023-02-11T06:17:53;18.00;45.10
67820;DHT22;54618;52.018;5.576;2023-02-11T06:20:19;17.90;45.10
67820;DHT22;54618;52.018;5.576;2023-02-11T06:22:45;17.70;45.20
67820;DHT22;54618;52.018;5.576;2023-02-11T06:25:11;17.60;45.40
67820;DHT22;54618;52.018;5.576;2023-02-11T06:27:37;17.40;45.60
67820;DHT22;54618;52.018;5.576;2023-02-11T06:30:04;17.30;45.80
67820;DHT22;54618;52.018;5.576;2023-02-11T06:32:29;17.20;46.00
67820;DHT22;54618;52.018;5.576;2023-02-11T06:34:55;17.10;46.20
67820;DHT22;54618;52.018;5.576;2023-02-11T06:37:20;17.10;46.30
67820;DHT22;54618;52.018;5.576;2023-02-11T06:39:46;17.50;46.20
67820;DHT22;54618;52.018;5.576;2023-02-11T06:42:12;18.00;45.90
67820;DHT22;54618;52.018;5.576;2023-02-11T06:44:37;18.50;45.20
67820;DHT22;54618;52.018;5.576;2023-02-11T06:47:03;19.00;44.50
67820;DHT22;54618;52.018;5.576;2023-02-11T06:49:28;19.40;43.90
67820;DHT22;54618;52.018;5.576;2023-02-11T06:51:54;19.80;43.50
67820;DHT22;54618;52.018;5.576;2023-02-11T06:54:19;20.00;43.10
67820;DHT22;54618;52.018;5.576;2023-02-11T06:56:45;20.20;42.80
67820;DHT22;54618;52.018;5.576;2023-02-11T06:59:18;20.40;42.70
67820;DHT22;54618;52.018;5.576;2023-02-11T07:01:45;20.50;42.40
67820;DHT22;54618;52.018;5.576;2023-02-11T07:04:11;20.70;42.50
67820;DHT22;54618;52.018;5.576;2023-02-11T07:06:37;20.70;42.40
67820;DHT22;54618;52.018;5.576;2023-02-11T07:09:03;20.80;42.30
67820;DHT22;54618;52.018;5.576;2023-02-11T07:11:29;20.90;42.30
67820;DHT22;54618;52.018;5.576;2023-02-11T07:13:59;20.90;42.30
67820;DHT22;54618;52.018;5.576;2023-02-11T07:16:25;20.90;42.30
67820;DHT22;54618;52.018;5.576;2023-02-11T07:18:50;21.00;42.30
67820;DHT22;54618;52.018;5.576;2023-02-11T07:21:19;21.00;42.30
67820;DHT22;54618;52.018;5.576;2023-02-11T07:23:45;21.00;42.20
67820;DHT22;54618;52.018;5.576;2023-02-11T07:26:17;21.10;42.30
67820;DHT22;54618;52.018;5.576;2023-02-11T07:28:43;21.10;42.20
67820;DHT22;54618;52.018;5.576;2023-02-11T07:31:13;21.10;42.10
67820;DHT22;54618;52.018;5.576;2023-02-11T07:33:39;21.10;42.20
67820;DHT22;54618;52.018;5.576;2023-02-11T07:36:07;21.10;42.20
67820;DHT22;54618;52.018;5.576;2023-02-11T07:38:33;21.20;42.10
67820;DHT22;54618;52.018;5.576;2023-02-11T07:41:05;21.20;42.20
67820;DHT22;54618;52.018;5.576;2023-02-11T07:43:31;21.20;42.10
67820;DHT22;54618;52.018;5.576;2023-02-11T07:45:57;21.20;42.10
67820;DHT22;54618;52.018;5.576;2023-02-11T07:48:23;21.30;42.20
67820;DHT22;54618;52.018;5.576;2023-02-11T07:50:49;21.30;42.20
67820;DHT22;54618;52.018;5.576;2023-02-11T07:53:15;21.30;42.20
67820;DHT22;54618;52.018;5.576;2023-02-11T07:55:42;21.30;42.20
67820;DHT22;54618;52.018;5.576;2023-02-11T07:58:07;21.30;43.00
67820;DHT22;54618;52.018;5.576;2023-02-11T08:00:33;21.30;42.50
67820;DHT22;54618;52.018;5.576;2023-02-11T08:02:58;21.30;42.50
67820;DHT22;54618;52.018;5.576;2023-02-11T08:05:24;21.30;42.60
67820;DHT22;54618;52.018;5.576;2023-02-11T08:07:53;21.30;42.70
67820;DHT22;54618;52.018;5.576;2023-02-11T08:10:19;21.30;42.60
67820;DHT22;54618;52.018;5.576;2023-02-11T08:12:45;21.30;42.70
67820;DHT22;54618;52.018;5.576;2023-02-11T08:15:11;21.20;42.50
67820;DHT22;54618;52.018;5.576;2023-02-11T08:17:37;21.20;42.70
67820;DHT22;54618;52.018;5.576;2023-02-11T08:20:04;21.10;42.70
67820;DHT22;54618;52.018;5.576;2023-02-11T08:22:33;21.10;42.70
67820;DHT22;54618;52.018;5.576;2023-02-11T08:24:59;21.10;42.60
67820;DHT22;54618;52.018;5.576;2023-02-11T08:27:25;21.10;42.70
67820;DHT22;54618;52.018;5.576;2023-02-11T08:29:51;21.10;42.70
67820;DHT22;54618;52.018;5.576;2023-02-11T08:32:17;21.10;42.70
67820;DHT22;54618;52.018;5.576;2023-02-11T08:34:43;21.10;42.80
67820;DHT22;54618;52.018;5.576;2023-02-11T08:37:09;21.10;42.80
67820;DHT22;54618;52.018;5.576;2023-02-11T08:39:34;21.20;43.00
67820;DHT22;54618;52.018;5.576;2023-02-11T08:42:00;21.10;43.00
67820;DHT22;54618;52.018;5.576;2023-02-11T08:44:25;21.00;43.30
67820;DHT22;54618;52.018;5.576;2023-02-11T08:46:51;20.90;43.50
67820;DHT22;54618;52.018;5.576;2023-02-11T08:49:18;20.90;43.60
67820;DHT22;54618;52.018;5.576;2023-02-11T08:51:44;20.90;43.50
67820;DHT22;54618;52.018;5.576;2023-02-11T08:54:11;20.90;43.50
67820;DHT22;54618;52.018;5.576;2023-02-11T08:56:37;21.00;43.50
67820;DHT22;54618;52.018;5.576;2023-02-11T08:59:03;21.00;43.50
67820;DHT22;54618;52.018;5.576;2023-02-11T09:01:30;21.00;43.50
67820;DHT22;54618;52.018;5.576;2023-02-11T09:03:57;21.00;43.40
67820;DHT22;54618;52.018;5.576;2023-02-11T09:06:24;21.10;43.50
67820;DHT22;54618;52.018;5.576;2023-02-11T09:08:52;21.10;43.30
67820;DHT22;54618;52.018;5.576;2023-02-11T09:11:21;21.10;43.30
67820;DHT22;54618;52.018;5.576;2023-02-11T09:13:49;21.10;43.30
67820;DHT22;54618;52.018;5.576;2023-02-11T09:16:20;21.20;43.30
67820;DHT22;54618;52.018;5.576;2023-02-11T09:18:47;21.20;43.20
67820;DHT22;54618;52.018;5.576;2023-02-11T09:21:14;21.20;43.30
67820;DHT22;54618;52.018;5.576;2023-02-11T09:23:40;21.20;43.30
67820;DHT22;54618;52.018;5.576;2023-02-11T09:26:20;21.20;43.30
67820;DHT22;54618;52.018;5.576;2023-02-11T09:28:46;21.20;43.20
67820;DHT22;54618;52.018;5.576;2023-02-11T09:31:15;21.20;43.20
67820;DHT22;54618;52.018;5.576;2023-02-11T09:33:42;21.30;43.30
67820;DHT22;54618;52.018;5.576;2023-02-11T09:36:13;21.30;43.30
67820;DHT22;54618;52.018;5.576;2023-02-11T09:38:39;21.30;43.30
67820;DHT22;54618;52.018;5.576;2023-02-11T09:41:04;21.30;43.30
67820;DHT22;54618;52.018;5.576;2023-02-11T09:43:37;21.30;43.40
67820;DHT22;54618;52.018;5.576;2023-02-11T09:46:13;21.60;43.20
67820;DHT22;54618;52.018;5.576;2023-02-11T09:48:42;21.90;42.80
67820;DHT22;54618;52.018;5.576;2023-02-11T09:53:57;22.60;42.20
67820;DHT22;54618;52.018;5.576;2023-02-11T09:56:24;22.90;41.90
67820;DHT22;54618;52.018;5.576;2023-02-11T09:58:50;23.20;41.60
67820;DHT22;54618;52.018;5.576;2023-02-11T10:01:48;23.40;41.50
67820;DHT22;54618;52.018;5.576;2023-02-11T10:09:55;23.80;41.20
67820;DHT22;54618;52.018;5.576;2023-02-11T10:19:23;24.10;41.20
67820;DHT22;54618;52.018;5.576;2023-02-11T10:21:35;24.20;41.10
67820;DHT22;54618;52.018;5.576;2023-02-11T10:24:08;24.20;41.20
67820;DHT22;54618;52.018;5.576;2023-02-11T10:26:36;24.20;41.20
67820;DHT22;54618;52.018;5.576;2023-02-11T10:29:12;24.20;41.10
67820;DHT22;54618;52.018;5.576;2023-02-11T10:31:42;24.30;41.10
67820;DHT22;54618;52.018;5.576;2023-02-11T10:34:11;24.30;41.10
67820;DHT22;54618;52.018;5.576;2023-02-11T10:36:41;24.30;41.10
